Latest Weather Observations for Portland Harbour

IDV60801

Issued at 11:02 am EDT Friday 6 March 2015 (issued every 30 minutes, with the page automatically refreshed every 10 minutes)

About weather observations | Map of weather stations | Latest weather observations for VIC | Other Formats
Station Details ID: 090192 Name: PORTLAND NTC AWS Lat: -38.34 Lon: 141.61 Height: 0.0 m
Data from the previous 72 hours. | See also: Recent months for locations in Victoria
Date/Time
EDT
Temp
°C
App
Temp
°C
Dew
Point
Rel
Hum
%
Delta-T
°C
Wind Press
QNH
hPa
Press
MSL
hPa
Rain
since 9 am
mm
Dir
 
Spd
km/h
Gust
km/h
Spd
kts
Gust
kts
06/11:00am 16.1 - - - - SW 30 44 16 24 1013.6 1013.6 -
06/10:30am 16.2 - - - - SW 26 35 14 19 1013.5 1013.5 -
06/10:00am 16.1 - - - - WSW 24 37 13 20 1013.3 1013.3 -
06/09:30am 15.9 - - - - WSW 28 41 15 22 1013.2 1013.2 -
06/09:00am 16.1 - - - - WSW 28 39 15 21 1013.2 1013.2 -
06/08:34am 15.9 - - - - WSW 28 48 15 26 1013.1 1013.1 -
06/08:30am 16.2 - - - - WSW 26 35 14 19 1013.0 1013.0 -
06/08:05am 16.4 - - - - WSW 32 50 17 27 1012.9 1012.9 -
06/08:00am 16.4 - - - - WSW 30 46 16 25 1012.8 1012.8 -
06/07:33am 16.1 - - - - WSW 28 46 15 25 1012.6 1012.6 -
06/07:30am 16.1 - - - - WSW 30 46 16 25 1012.6 1012.6 -
06/07:27am 16.0 - - - - WSW 32 52 17 28 1012.7 1012.7 -
06/07:00am 16.2 - - - - WSW 33 46 18 25 1012.5 1012.5 -
06/06:42am 16.4 - - - - WSW 32 50 17 27 1012.4 1012.4 -
06/06:30am 16.3 - - - - WSW 35 52 19 28 1012.4 1012.4 -
06/06:23am 16.3 - - - - WSW 32 52 17 28 1012.5 1012.5 -
06/06:00am 15.7 - - - - WSW 33 48 18 26 1012.7 1012.7 -
06/05:33am 15.6 - - - - WSW 30 50 16 27 1012.7 1012.7 -
06/05:30am 15.4 - - - - WSW 30 44 16 24 1012.7 1012.7 -
06/05:03am 16.1 - - - - WSW 30 50 16 27 1013.0 1013.0 -
06/05:00am 16.2 - - - - WSW 32 48 17 26 1013.0 1013.0 -
06/04:31am 16.3 - - - - WSW 32 52 17 28 1013.0 1013.0 -
06/04:30am 16.3 - - - - WSW 30 44 16 24 1013.0 1013.0 -
06/04:11am 16.2 - - - - WSW 30 48 16 26 1013.0 1013.0 -
06/04:00am 15.9 - - - - WSW 30 46 16 25 1013.1 1013.1 -
06/03:30am 16.0 - - - - WSW 28 43 15 23 1013.3 1013.3 -
06/03:00am 15.9 - - - - WSW 28 44 15 24 1013.7 1013.7 -
06/02:30am 15.9 - - - - WSW 26 37 14 20 1014.3 1014.3 -
06/02:02am 15.8 - - - - WSW 28 50 15 27 1014.5 1014.5 -
06/02:00am 15.7 - - - - WSW 26 50 14 27 1014.6 1014.6 -
06/01:30am 15.6 - - - - WSW 32 57 17 31 1014.6 1014.6 -
06/01:16am 15.8 - - - - WSW 28 46 15 25 1014.8 1014.8 -
06/01:00am 15.6 - - - - WSW 28 46 15 25 1014.7 1014.7 -
06/12:31am 15.4 - - - - WSW 35 56 19 30 1014.7 1014.7 -
06/12:30am 15.4 - - - - WSW 37 56 20 30 1014.8 1014.8 -
06/12:19am 15.6 - - - - WSW 28 48 15 26 1014.9 1014.9 -
06/12:00am 15.3 - - - - W 28 43 15 23 1015.4 1015.4 -
 
Date/Time
EDT
Temp
°C
App
Temp
°C
Dew
Point
Rel
Hum
%
Delta-T
°C
Wind Press
QNH
hPa
Press
MSL
hPa
Rain
since 9 am
mm
Dir
 
Spd
km/h
Gust
km/h
Spd
kts
Gust
kts
05/11:37pm 15.6 - - - - WSW 30 48 16 26 1015.5 1015.5 -
05/11:30pm 15.6 - - - - WSW 32 46 17 25 1015.7 1015.7 -
05/11:00pm 15.5 - - - - W 24 37 13 20 1016.2 1016.2 -
05/10:30pm 15.3 - - - - W 22 37 12 20 1016.3 1016.3 -
05/10:00pm 15.3 - - - - W 22 35 12 19 1016.4 1016.4 -
05/09:30pm 15.0 - - - - WSW 20 30 11 16 1016.6 1016.6 -
05/09:00pm 15.1 - - - - WSW 24 39 13 21 1016.6 1016.6 -
05/08:30pm 15.3 - - - - WSW 28 44 15 24 1016.8 1016.8 -
05/08:00pm 15.4 - - - - W 26 37 14 20 1016.8 1016.8 -
05/07:30pm 15.4 - - - - WSW 20 35 11 19 1017.2 1017.2 -
05/07:00pm 15.5 - - - - WSW 26 39 14 21 1017.5 1017.5 -
05/06:30pm 15.4 - - - - WSW 30 46 16 25 1017.7 1017.7 -
05/06:04pm 15.5 - - - - WSW 32 52 17 28 1017.7 1017.7 -
05/06:00pm 16.0 - - - - WSW 30 41 16 22 1017.7 1017.7 -
05/05:30pm 15.6 - - - - WSW 28 43 15 23 1017.8 1017.8 -
05/05:00pm 16.0 - - - - WSW 33 46 18 25 1018.1 1018.1 -
05/04:30pm 15.8 - - - - WSW 35 50 19 27 1018.5 1018.5 -
05/04:00pm 16.5 - - - - WSW 28 43 15 23 1018.6 1018.6 -
05/03:30pm 16.3 - - - - WSW 30 43 16 23 1018.6 1018.6 -
05/03:00pm 15.4 - - - - SW 28 43 15 23 1019.1 1019.1 -
05/02:30pm 15.8 - - - - WSW 32 46 17 25 1019.0 1019.0 -
05/02:00pm 15.8 - - - - WSW 28 44 15 24 1019.6 1019.6 -
05/01:30pm 15.8 - - - - WSW 32 44 17 24 1019.6 1019.6 -
05/01:00pm 15.9 - - - - SW 24 35 13 19 1019.8 1019.8 -
05/12:30pm 15.8 - - - - WSW 26 39 14 21 1020.2 1020.2 -
05/12:00pm 15.8 - - - - SW 28 41 15 22 1020.4 1020.4 -
05/11:30am 15.2 - - - - SW 30 43 16 23 1020.5 1020.5 -
05/11:00am 15.6 - - - - SSW 28 37 15 20 1020.1 1020.1 -
05/10:30am 15.1 - - - - SW 32 41 17 22 1019.9 1019.9 -
05/10:00am 14.9 - - - - SSW 33 41 18 22 1019.5 1019.5 -
05/09:30am 15.1 - - - - SSW 32 48 17 26 1019.2 1019.2 -
05/09:00am 15.0 - - - - SSW 32 44 17 24 1018.8 1018.8 -
05/08:30am 14.5 - - - - SSW 35 52 19 28 1018.6 1018.6 -
05/08:02am 14.1 - - - - SSW 33 57 18 31 1018.2 1018.2 -
05/08:00am 14.1 - - - - SSW 33 50 18 27 1018.1 1018.1 -
05/07:31am 14.1 - - - - SSW 35 54 19 29 1017.6 1017.6 -
05/07:30am 14.0 - - - - SSW 33 48 18 26 1017.6 1017.6 -
05/07:00am 14.1 - - - - SSW 39 57 21 31 1016.9 1016.9 -
05/06:35am 14.1 - - - - SSW 39 59 21 32 1016.8 1016.8 -
05/06:30am 13.9 - - - - SSW 37 54 20 29 1016.6 1016.6 -
05/06:00am 14.0 - - - - SSW 39 59 21 32 1016.3 1016.3 -
05/05:32am 14.1 - - - - SSW 41 59 22 32 1016.2 1016.2 -
05/05:30am 14.2 - - - - SSW 43 59 23 32 1016.1 1016.1 -
05/05:19am 14.2 - - - - SSW 37 57 20 31 1016.1 1016.1 -
05/05:00am 14.1 - - - - SSW 35 50 19 27 1016.1 1016.1 -
05/04:30am 14.3 - - - - SW 37 57 20 31 1016.0 1016.0 -
05/04:00am 14.4 - - - - SSW 39 59 21 32 1015.5 1015.5 -
05/03:31am 14.2 - - - - SW 33 61 18 33 1015.0 1015.0 -
05/03:30am 14.1 - - - - SW 32 46 17 25 1015.0 1015.0 -
05/03:18am 14.2 - - - - SW 35 54 19 29 1014.9 1014.9 -
05/03:00am 14.2 - - - - SW 41 57 22 31 1014.9 1014.9 -
05/02:39am 14.1 - - - - SW 41 59 22 32 1014.8 1014.8 -
05/02:30am 14.7 - - - - SW 41 57 22 31 1014.5 1014.5 -
05/02:00am 14.2 - - - - SW 44 65 24 35 1014.3 1014.3 -
05/01:30am 15.3 - - - - SW 52 74 28 40 1013.7 1013.7 -
05/01:00am 14.7 - - - - SW 52 72 28 39 1012.9 1012.9 -
05/12:30am 16.0 - - - - SW 46 65 25 35 1011.9 1011.9 -
05/12:09am 16.6 - - - - SW 39 57 21 31 1011.5 1011.5 -
05/12:00am 16.5 - - - - SW 39 56 21 30 1011.5 1011.5 -
 
Date/Time
EDT
Temp
°C
App
Temp
°C
Dew
Point
Rel
Hum
%
Delta-T
°C
Wind Press
QNH
hPa
Press
MSL
hPa
Rain
since 9 am
mm
Dir
 
Spd
km/h
Gust
km/h
Spd
kts
Gust
kts
04/11:30pm 15.3 - - - - SW 37 63 20 34 1011.5 1011.5 -
04/11:01pm 16.8 - - - - WSW 28 56 15 30 1011.3 1011.3 -
04/11:00pm 16.8 - - - - WSW 26 43 14 23 1011.1 1011.1 -
04/10:30pm 15.3 - - - - W 26 43 14 23 1010.9 1010.9 -
04/10:05pm 15.2 - - - - WSW 39 59 21 32 1011.1 1011.1 -
04/10:00pm 16.5 - - - - W 32 57 17 31 1010.8 1010.8 -
04/09:30pm 17.3 - - - - WNW 24 32 13 17 1010.4 1010.4 -
04/09:00pm 17.1 - - - - WNW 28 41 15 22 1010.2 1010.2 -
04/08:45pm 16.9 - - - - WNW 30 48 16 26 1010.4 1010.4 -
04/08:30pm 16.9 - - - - WNW 33 50 18 27 1010.4 1010.4 -
04/08:17pm 16.7 - - - - WNW 28 46 15 25 1010.6 1010.6 -
04/08:00pm 16.8 - - - - WNW 30 48 16 26 1010.6 1010.6 -
04/07:30pm 16.8 - - - - WNW 35 54 19 29 1010.6 1010.6 -
04/07:03pm 17.5 - - - - WNW 32 52 17 28 1010.6 1010.6 -
04/07:00pm 17.4 - - - - WNW 33 52 18 28 1010.5 1010.5 -
04/06:44pm 17.2 - - - - W 30 48 16 26 1010.7 1010.7 -
04/06:30pm 16.4 - - - - W 30 43 16 23 1010.9 1010.9 -
04/06:00pm 18.2 - - - - WNW 37 59 20 32 1010.9 1010.9 -
04/05:35pm 18.5 - - - - W 41 59 22 32 1010.7 1010.7 -
04/05:30pm 18.7 - - - - W 41 59 22 32 1011.0 1011.0 -
04/05:10pm 17.8 - - - - WNW 37 56 20 30 1011.2 1011.2 -
04/05:00pm 17.9 - - - - W 41 57 22 31 1011.4 1011.4 -
04/04:30pm 19.0 - - - - W 37 63 20 34 1011.5 1011.5 -
04/04:00pm 18.9 - - - - WNW 37 57 20 31 1011.7 1011.7 -
04/03:34pm 19.2 - - - - W 37 57 20 31 1012.1 1012.1 -
04/03:30pm 19.0 - - - - W 37 52 20 28 1012.0 1012.0 -
04/03:06pm 19.2 - - - - W 39 59 21 32 1012.3 1012.3 -
04/03:00pm 19.3 - - - - W 37 54 20 29 1012.4 1012.4 -
04/02:30pm 18.9 - - - - WNW 33 52 18 28 1012.7 1012.7 -
04/02:18pm 18.7 - - - - WNW 33 52 18 28 1012.9 1012.9 -
04/02:00pm 19.1 - - - - WNW 35 52 19 28 1013.1 1013.1 -
04/01:30pm 18.0 - - - - W 28 46 15 25 1013.4 1013.4 -
04/01:08pm 17.9 - - - - W 33 56 18 30 1013.4 1013.4 -
04/01:00pm 18.4 - - - - W 33 48 18 26 1013.5 1013.5 -
04/12:50pm 18.5 - - - - W 33 52 18 28 1013.6 1013.6 -
04/12:30pm 17.4 - - - - WNW 28 43 15 23 1013.8 1013.8 -
04/12:24pm 16.9 - - - - W 28 46 15 25 1014.1 1014.1 -
04/12:00pm 17.2 - - - - W 28 39 15 21 1014.3 1014.3 -
04/11:30am 17.1 - - - - WNW 32 46 17 25 1014.6 1014.6 -
04/11:00am 16.9 - - - - W 28 37 15 20 1014.6 1014.6 -
04/10:30am 15.6 - - - - WNW 20 32 11 17 1014.8 1014.8 -
04/10:00am 16.7 - - - - WSW 30 43 16 23 1015.1 1015.1 -
04/09:30am 16.4 - - - - WSW 24 41 13 22 1015.0 1015.0 -
04/09:00am 16.6 - - - - W 19 33 10 18 1014.8 1014.8 -
04/08:30am 16.3 - - - - W 15 26 8 14 1014.6 1014.6 -
04/08:00am 16.4 - - - - W 19 30 10 16 1014.5 1014.5 -
04/07:30am 16.5 - - - - W 15 24 8 13 1014.0 1014.0 -
04/07:00am 16.5 - - - - W 15 24 8 13 1013.9 1013.9 -
04/06:30am 16.5 - - - - WSW 17 24 9 13 1014.0 1014.0 -
04/06:00am 16.1 - - - - W 11 19 6 10 1014.1 1014.1 -
04/05:30am 16.2 - - - - W 19 28 10 15 1014.2 1014.2 -
04/05:00am 16.0 - - - - W 19 30 10 16 1014.5 1014.5 -
04/04:30am 15.8 - - - - NW 7 11 4 6 1014.6 1014.6 -
04/04:00am 15.3 - - - - W 9 15 5 8 1014.8 1014.8 -
04/03:30am 15.0 - - - - WSW 9 15 5 8 1015.1 1015.1 -
04/03:00am 14.3 - - - - NW 7 9 4 5 1015.4 1015.4 -
04/02:30am 13.8 - - - - W 6 7 3 4 1015.8 1015.8 -
04/02:00am 14.3 - - - - WNW 9 15 5 8 1015.9 1015.9 -
04/01:30am 14.0 - - - - NW 7 13 4 7 1016.1 1016.1 -
04/01:00am 14.2 - - - - NW 11 17 6 9 1016.2 1016.2 -
04/12:30am 14.1 - - - - NW 7 9 4 5 1016.6 1016.6 -
04/12:00am 14.5 - - - - NW 7 9 4 5 1016.9 1016.9 -
 
Date/Time
EDT
Temp
°C
App
Temp
°C
Dew
Point
Rel
Hum
%
Delta-T
°C
Wind Press
QNH
hPa
Press
MSL
hPa
Rain
since 9 am
mm
Dir
 
Spd
km/h
Gust
km/h
Spd
kts
Gust
kts
03/11:30pm 15.1 - - - - NW 9 11 5 6 1017.2 1017.2 -
03/11:00pm 15.1 - - - - NW 7 9 4 5 1017.5 1017.5 -
03/10:30pm 15.3 - - - - WNW 7 9 4 5 1017.6 1017.6 -
03/10:00pm 15.4 - - - - WNW 7 11 4 6 1017.6 1017.6 -
03/09:30pm 15.8 - - - - WNW 9 13 5 7 1017.4 1017.4 -
03/09:00pm 16.3 - - - - W 9 13 5 7 1017.0 1017.0 -
03/08:30pm 16.9 - - - - WSW 9 13 5 7 1016.8 1016.8 -
03/08:00pm 17.2 - - - - SW 17 24 9 13 1016.5 1016.5 -
03/07:30pm 17.3 - - - - SW 20 28 11 15 1016.5 1016.5 -
03/07:00pm 17.5 - - - - SW 19 24 10 13 1016.4 1016.4 -
03/06:30pm 17.7 - - - - SW 20 30 11 16 1016.4 1016.4 -
03/06:00pm 18.4 - - - - SW 24 33 13 18 1016.2 1016.2 -
03/05:30pm 18.5 - - - - SW 24 33 13 18 1016.2 1016.2 -
03/05:00pm 18.5 - - - - SW 20 30 11 16 1016.2 1016.2 -
03/04:30pm 18.8 - - - - SW 20 32 11 17 1016.3 1016.3 -
03/04:00pm 18.6 - - - - SW 22 32 12 17 1016.5 1016.5 -
03/03:30pm 18.7 - - - - SSW 22 33 12 18 1016.8 1016.8 -
03/03:00pm 18.6 - - - - WSW 17 28 9 15 1017.2 1017.2 -
03/02:30pm 18.6 - - - - WSW 17 28 9 15 1017.2 1017.2 -
03/02:00pm 18.7 - - - - SW 19 26 10 14 1017.5 1017.5 -
03/01:30pm 18.5 - - - - SW 19 28 10 15 1017.8 1017.8 -
03/01:00pm 18.4 - - - - S 17 24 9 13 1018.1 1018.1 -
03/12:30pm 18.4 - - - - SW 13 20 7 11 1018.6 1018.6 -
03/12:00pm 17.7 - - - - S 15 20 8 11 1018.7 1018.7 -
03/11:30am 18.1 - - - - S 13 22 7 12 1018.6 1018.6 -

Other Formats:

Comma delimited format used in spreadsheet applications
http://www.bom.gov.au/fwo/IDV60801/IDV60801.95826.axf

JavaScript Object Notation format (JSON) in row-major order
http://www.bom.gov.au/fwo/IDV60801/IDV60801.95826.json